Stevensville, MT (59870)

11:22 AM MST on February 13, 2016 (GMT -0700)
SteviBigSky | | Change Station
CLOSE
Current Station
Personal Weather Station
Location: Stevensville, MT
Elevation: 3415 ft
Nearby Weather Stations

Elev 3415 ft 46.49 °N, 114.07 °W | Updated 6 seconds ago

Overcast
Overcast
43.2 °F
Feels Like 37 °F
N
10.5
Wind Variable Wind from South
Gusts 12.3 mph

Today
High -- | Low -- °F
--% Chance of Precip.
Yesterday
High -- | Low -- °F
Precip. -- in
Pressure 30.23 in
Visibility 10.0 miles
Clouds Scattered Clouds 4000 ft
Mostly Cloudy 4800 ft
Overcast 6500 ft
Windchill 37 °F
Dew Point 24 °F
Humidity 47%
Rainfall 0.07 in
Snow Depth Not available.
7:43 AM 5:57 PM
Waxing Crescent, 33% visible
METAR KMSO 131753Z AUTO 34007KT 10SM SCT040 BKN048 OVC065 04/01 A3017 RMK AO2 RAE03B29E41 SLP236 P0000 60000 T00390011 10039 20006 51016 $
Pressure 30.23 in
Visibility 10.0 miles
Clouds Scattered Clouds 4000 ft
Mostly Cloudy 4800 ft
Overcast 6500 ft
Windchill 37 °F
Dew Point 24 °F
Humidity 47%
Rainfall 0.07 in
Snow Depth Not available.
7:43 AM 5:57 PM
Waxing Crescent, 33% visible
METAR KMSO 131753Z AUTO 34007KT 10SM SCT040 BKN048 OVC065 04/01 A3017 RMK AO2 RAE03B29E41 SLP236 P0000 60000 T00390011 10039 20006 51016 $

10-Day Weather Forecast

Almanac

Astronomy

Feb. 13, 2016 Rise Set
Actual Time
Civil Twilight
Nautical Twilight
Astronomical Twilight
Moon
Length of Visible Light
Length of Day
Tomorrow will be .
, % of the Moon is Illuminated

Today's Extremes

State Highs State Lows

Community

WunderPhotos

Upload Photos

1,892,632 photos uploaded!

WunderBlog® & News

Nearby

Air Quality

  Air Quality AQ Index Pollutant
Not available.

Snow Depth

Station Depth Elevation

Earthquake Activity

City Distance Mag. Time & Date
Minimum magnitude displayed is 2.5.

Coastal Water Temperatures

Place Temperature

Stations

Nearby Weather Stations

Station Location Temp. Windchill Dew Point Humidity Wind Precip. Elev Updated Type
                   

Watches & Warnings

There are currently no watches in effect.